Flight Track Log - Related Links

Times and Time Zones

All times are in EDT time to prevent confusion due to time zone crossing. See the N678MB flight status page for this flight to view local times or setup timezone preferences in your user account.

Time Position Orientation Groundspeed Altitude Reporting Facility
EDT Latitude Longitude Course Direction KTS MPH feet Rate Location/Type
Thu 05:48:10 PM 39.3667 -84.5333 270° West 121 139 1,400  Level Cincinnati TRACON
Thu 05:48:34 PM 39.3667 -84.5667 270° West 137 158 2,500 2,229 Climbing Cincinnati TRACON
Thu 05:49:20 PM 39.3944 -84.5947 322° Northwest 192 221 4,000 2,278 Climbing Indianapolis Center
Thu 05:50:22 PM 39.4147 -84.5219 70° East 273 314 6,600 2,806 Climbing Indianapolis Center
Thu 05:51:24 PM 39.3675 -84.4800 146° Southeast 215 247 9,800 2,806 Climbing Indianapolis Center
Thu 05:52:26 PM 39.3167 -84.4356 146° Southeast 216 249 12,400 2,371 Climbing Indianapolis Center
Thu 05:53:28 PM 39.2633 -84.3847 144° Southeast 231 266 14,700 2,177 Climbing Indianapolis Center
Thu 05:54:30 PM 39.1961 -84.3219 144° Southeast 250 288 16,900 1,452 Climbing Indianapolis Center
Thu 05:55:32 PM 39.1225 -84.2581 146° Southeast 317 365 17,700 1,742 Climbing Indianapolis Center
Thu 05:56:34 PM 39.0592 -84.1939 142° Southeast 289 333 20,500 2,274 Climbing Indianapolis Center
Thu 05:57:36 PM 38.9964 -84.1261 140° Southeast 291 335 22,400 1,694 Climbing Indianapolis Center
Thu 05:58:38 PM 38.9314 -84.0561 140° Southeast 302 348 24,000 1,548 Climbing Indianapolis Center
Thu 05:59:40 PM 38.8664 -83.9783 137° Southeast 318 366 25,600 1,516 Climbing Indianapolis Center
Thu 06:01:44 PM 38.8078 -83.7156 106° East 356 410 28,700 1,355 Climbing Indianapolis Center
Thu 06:02:46 PM 38.8361 -83.5997 73° East 337 388 29,800 1,065 Climbing Indianapolis Center
Thu 06:03:48 PM 38.8686 -83.4831 70° East 343 395 30,900 1,065 Climbing Indianapolis Center
Thu 06:04:50 PM 38.9022 -83.3636 70° East 352 405 32,000 1,210 Climbing Indianapolis Center
Thu 06:05:52 PM 38.9353 -83.2444 70° East 353 406 33,400 1,306 Climbing Indianapolis Center
Thu 06:06:54 PM 38.9678 -83.1264 70° East 329 379 34,700 768 Climbing Indianapolis Center
Thu 06:07:57 PM 38.9992 -83.0139 70° East 330 380 35,000 144 Climbing Indianapolis Center
Thu 06:08:59 PM 39.0339 -82.8928 70° East 354 407 35,000  Level Indianapolis Center
Thu 06:10:01 PM 39.0700 -82.7608 71° East 383 441 35,000  Level Indianapolis Center
Thu 06:11:03 PM 39.1064 -82.6247 71° East 398 458 35,000  Level Indianapolis Center
Thu 06:12:05 PM 39.1528 -82.4572 70° East 409 471 35,000  Level Indianapolis Center
Thu 06:13:07 PM 39.1906 -82.3175 71° East 411 473 35,000  Level Indianapolis Center
Thu 06:14:09 PM 39.2283 -82.1772 71° East 412 474 35,000  Level Indianapolis Center
Thu 06:15:11 PM 39.2661 -82.0375 71° East 411 473 35,000  Level Indianapolis Center
Thu 06:16:13 PM 39.3028 -81.8994 71° East 406 467 35,000  Level Indianapolis Center
Thu 06:17:15 PM 39.3397 -81.7592 71° East 409 471 35,000  Level Indianapolis Center
Thu 06:18:17 PM 39.3769 -81.6208 71° East 406 467 35,000  Level Indianapolis Center
Thu 06:19:19 PM 39.4200 -81.4533 72° East 407 468 35,000  Level Indianapolis Center
Thu 06:20:15 PM 39.4497 -81.3222 74° East 408 470 35,000  Level Cleveland Center
Thu 06:21:15 PM 39.4611 -81.1772 84° East 408 470 35,000  Level Cleveland Center
Thu 06:22:15 PM 39.4742 -81.0294 83° East 408 470 35,000 -300 Level Cleveland Center
Thu 06:23:15 PM 39.4853 -80.8789 84° East 408 470 34,400 -504 Descending Cleveland Center
Thu 06:24:14 PM 39.4958 -80.7231 85° East 419 482 34,000 -324 Descending Cleveland Center
Thu 06:24:29 PM 39.4950 -80.7033 93° East 437 503 34,000  Level Indianapolis Center
Thu 06:25:14 PM 39.5086 -80.5669 83° East 427 491 34,000  Level Cleveland Center
Thu 06:26:15 PM 39.5208 -80.4161 84° East 427 491 34,000  Level Cleveland Center
Thu 06:27:15 PM 39.5247 -80.2628 88° East 422 486 34,000  Level Cleveland Center
Thu 06:28:14 PM 39.5181 -80.1147 93° East 422 486 34,000  Level Cleveland Center
Thu 06:29:14 PM 39.5108 -79.9764 94° East 421 484 34,000 -149 Level Washington Center
Thu 06:30:15 PM 39.5039 -79.8253 93° East 421 484 33,700 -1,289 Descending Washington Center
Thu 06:31:15 PM 39.4967 -79.6714 93° East 426 490 31,400 -2,400 Descending Washington Center
Thu 06:32:15 PM 39.4875 -79.5094 94° East 431 496 28,900 -2,550 Descending Washington Center
Thu 06:33:15 PM 39.4800 -79.3533 94° East 431 496 26,300 -2,500 Descending Washington Center
Thu 06:34:15 PM 39.4686 -79.1806 95° East 436 502 23,900 -2,200 Descending Washington Center
Thu 06:35:15 PM 39.4583 -79.0322 95° East 429 494 21,900 -2,000 Descending Washington Center
Thu 06:36:15 PM 39.4517 -78.8919 93° East 410 472 19,900 -2,000 Descending Washington Center
Thu 06:37:15 PM 39.4450 -78.7600 94° East 389 448 17,900 -1,900 Descending Washington Center
Thu 06:38:15 PM 39.4356 -78.6333 95° East 365 420 16,100 -1,900 Descending Washington Center
Thu 06:39:15 PM 39.4283 -78.5122 94° East 352 405 14,100 -2,000 Descending Washington Center
Thu 06:41:15 PM 39.4150 -78.2806 94° East 327 376 10,100 -1,709 Descending Washington Center
Thu 06:42:14 PM 39.4067 -78.1756 96° East 306 352 9,000 -800 Descending Washington Center
Thu 06:43:15 PM 39.3986 -78.0706 96° East 294 338 8,500 -843 Descending Washington Center
Thu 06:44:15 PM 39.3922 -77.9656 94° East 294 338 7,300 -800 Descending Washington Center
Thu 06:45:15 PM 39.3861 -77.8633 94° East 294 338 6,900 -650 Descending Washington Center
Thu 06:46:15 PM 39.3961 -77.7642 83° East 288 331 6,000 -1,000 Descending Washington Center
Thu 06:47:15 PM 39.4039 -77.6786 83° East 276 318 4,900 -550 Descending Washington Center
Thu 06:48:15 PM 39.4158 -77.5847 81° East 270 311 4,900 -116 Level Washington Center
Thu 06:50:42 PM 39.4500 -77.3500 79° East 259 298 4,500 -232 Descending Potomac TRACON
Thu 06:51:42 PM 39.4000 -77.2667 128° Southeast 217 250 4,100 -450 Descending Potomac TRACON
Thu 06:52:42 PM 39.3500 -77.2500 166° South 204 235 3,600 -574 Descending Potomac TRACON
Thu 06:53:37 PM 39.3000 -77.2333 166° South 228 262 3,000 -783 Descending Potomac TRACON
Thu 06:54:37 PM 39.2500 -77.2000 153° Southeast 232 267 2,100 -450 Descending Potomac TRACON
Thu 06:55:37 PM 39.2000 -77.1667 153° Southeast 195 224 2,100 -250 Level Potomac TRACON
Thu 06:56:37 PM 39.1667 -77.1333 142° Southeast 148 170 1,600 -600 Descending Potomac TRACON
Thu 06:57:37 PM 39.1500 -77.1667 237° Southwest 133 153 900 -700 Descending Potomac TRACON
Thu 06:59:00 PM 39.1667 -77.1500 38° Northeast  Level FlightAware Approximate
Thu 07:06:00 PM 39.1683 -77.1660 38° Northeast  Level Estimated
Thu 07:07:00 PM 39.1683 -77.1660 38° Northeast  Level Estimated
Thu 07:08:00 PM 39.1683 -77.1660 38° Northeast  Level Estimated

Login

Don't have an account? Register now (free) for customized features, flight alerts, and more!